createdAt,value
2019-04-07T00:00:41.004Z,99.90
2019-04-07T00:01:49.215Z,99.90
2019-04-07T00:02:53.567Z,99.90
2019-04-07T00:03:58.548Z,99.90
2019-04-07T00:05:11.162Z,99.90
2019-04-07T00:06:09.659Z,99.90
2019-04-07T00:07:14.741Z,99.90
2019-04-07T00:08:19.248Z,99.90
2019-04-07T00:09:23.575Z,99.90
2019-04-07T00:10:28.664Z,99.90
2019-04-07T00:11:33.521Z,99.90
2019-04-07T00:12:37.920Z,99.90
2019-04-07T00:13:42.413Z,99.90
2019-04-07T00:14:46.866Z,99.90
2019-04-07T00:15:51.268Z,99.90
2019-04-07T00:16:55.879Z,99.90
2019-04-07T00:18:00.577Z,99.90
2019-04-07T00:19:05.464Z,99.90
2019-04-07T00:20:10.051Z,99.90
2019-04-07T00:21:14.592Z,99.90
2019-04-07T00:22:19.942Z,99.90
2019-04-07T00:23:24.416Z,99.90
2019-04-07T00:24:28.871Z,99.90
2019-04-07T00:25:33.332Z,99.90
2019-04-07T00:26:37.807Z,99.90
2019-04-07T00:27:42.219Z,99.90
2019-04-07T00:28:46.591Z,99.90
2019-04-07T00:29:51.078Z,99.90
2019-04-07T00:30:55.611Z,99.90
2019-04-07T00:32:00.133Z,99.90
2019-04-07T00:33:05.147Z,99.90
2019-04-07T00:34:09.681Z,99.90
2019-04-07T00:35:23.259Z,99.90
2019-04-07T00:36:20.692Z,99.90
2019-04-07T00:37:25.160Z,99.90
2019-04-07T00:38:29.620Z,99.90
2019-04-07T00:39:34.572Z,99.90
2019-04-07T00:40:39.264Z,99.90
2019-04-07T00:41:43.859Z,99.90
2019-04-07T00:42:48.222Z,99.90
2019-04-07T00:43:52.718Z,99.90
2019-04-07T00:44:57.184Z,99.90
2019-04-07T00:46:02.346Z,99.90
2019-04-07T00:47:07.378Z,99.90
2019-04-07T00:48:13.676Z,99.90
2019-04-07T00:49:18.260Z,99.90
2019-04-07T00:50:22.943Z,99.90
2019-04-07T00:51:27.648Z,99.90
2019-04-07T00:52:32.672Z,99.90
2019-04-07T00:53:37.531Z,99.90
2019-04-07T00:54:43.214Z,99.90
2019-04-07T00:55:47.823Z,99.90
2019-04-07T00:56:52.211Z,99.90
2019-04-07T00:57:57.152Z,99.90
2019-04-07T00:59:02.654Z,99.90
2019-04-07T01:00:09.632Z,99.90
2019-04-07T01:01:16.877Z,99.90
2019-04-07T01:02:21.362Z,99.90
2019-04-07T01:03:26.001Z,99.90
2019-04-07T01:04:30.697Z,99.90
2019-04-07T01:05:38.882Z,99.90
2019-04-07T01:06:42.207Z,99.90
2019-04-07T01:07:46.759Z,99.90
2019-04-07T01:08:51.499Z,99.90
2019-04-07T01:09:56.084Z,99.90
2019-04-07T01:11:00.538Z,99.90
2019-04-07T01:12:05.073Z,99.90
2019-04-07T01:13:09.574Z,99.90
2019-04-07T01:14:13.993Z,99.90
2019-04-07T01:15:18.632Z,99.90
2019-04-07T01:16:23.212Z,99.90
2019-04-07T01:17:27.927Z,99.90
2019-04-07T01:18:34.101Z,99.90
2019-04-07T01:19:38.673Z,99.90
2019-04-07T01:20:43.077Z,99.90
2019-04-07T01:21:47.756Z,99.90
2019-04-07T01:22:52.934Z,99.90
2019-04-07T01:23:57.838Z,99.90
2019-04-07T01:25:02.631Z,99.90
2019-04-07T01:26:07.457Z,99.90
2019-04-07T01:27:12.533Z,99.90
2019-04-07T01:28:17.776Z,99.90
2019-04-07T01:29:22.123Z,99.90
2019-04-07T01:30:27.200Z,99.90
2019-04-07T01:31:31.624Z,99.90
2019-04-07T01:32:36.707Z,99.90
2019-04-07T01:33:41.613Z,99.90
2019-04-07T01:34:46.865Z,99.90
2019-04-07T01:35:51.535Z,99.90
2019-04-07T01:36:56.726Z,99.90
2019-04-07T01:38:01.507Z,99.90
2019-04-07T01:39:10.012Z,99.90
2019-04-07T01:40:23.536Z,99.90
2019-04-07T01:41:39.347Z,99.90
2019-04-07T01:43:01.724Z,99.90
2019-04-07T01:44:30.874Z,99.90
2019-04-07T01:45:54.595Z,99.90
2019-04-07T01:47:30.530Z,99.90
2019-04-07T01:48:57.460Z,99.90
2019-04-07T01:50:19.067Z,99.90
2019-04-07T01:51:41.065Z,99.90
2019-04-07T01:53:23.011Z,99.90
2019-04-07T01:54:34.736Z,99.90
2019-04-07T01:55:57.511Z,99.90
2019-04-07T01:57:15.901Z,99.90
2019-04-07T01:58:38.179Z,99.90
2019-04-07T02:00:01.964Z,99.90
2019-04-07T02:01:23.067Z,99.90
2019-04-07T02:02:46.720Z,99.90
2019-04-07T02:04:09.367Z,99.90
2019-04-07T02:05:39.255Z,99.90
2019-04-07T02:07:02.113Z,99.90
2019-04-07T02:08:28.525Z,99.90
2019-04-07T02:09:51.401Z,99.90
2019-04-07T02:11:14.573Z,99.90
2019-04-07T02:12:41.353Z,99.90
2019-04-07T02:14:08.651Z,99.90
2019-04-07T02:15:23.999Z,99.90
2019-04-07T02:16:51.207Z,99.90
2019-04-07T02:18:03.646Z,99.90
2019-04-07T02:19:21.579Z,99.90
2019-04-07T02:21:00.872Z,99.90
2019-04-07T02:22:34.387Z,99.90
2019-04-07T02:23:50.970Z,99.90
2019-04-07T02:25:17.297Z,99.90
2019-04-07T02:26:34.331Z,99.90
2019-04-07T02:27:54.583Z,99.90
2019-04-07T02:29:17.043Z,99.90
2019-04-07T02:30:39.289Z,99.90
2019-04-07T02:32:00.190Z,99.90
2019-04-07T02:33:22.882Z,99.90
2019-04-07T02:34:49.544Z,99.90
2019-04-07T02:36:13.281Z,99.90
2019-04-07T02:37:24.663Z,99.90
2019-04-07T02:39:03.481Z,99.90
2019-04-07T02:40:26.721Z,99.90
2019-04-07T02:41:42.130Z,99.90
2019-04-07T02:42:51.950Z,99.90
2019-04-07T02:44:25.330Z,99.90
2019-04-07T02:45:49.315Z,99.90
2019-04-07T02:47:08.413Z,99.90
2019-04-07T02:48:39.450Z,99.90
2019-04-07T02:50:05.626Z,99.90
2019-04-07T02:51:26.294Z,99.90
2019-04-07T02:53:05.741Z,99.90
2019-04-07T02:54:47.569Z,99.90
2019-04-07T02:56:11.116Z,99.90
2019-04-07T02:57:36.003Z,99.90
2019-04-07T02:58:59.380Z,99.90
2019-04-07T03:00:25.934Z,99.90
2019-04-07T03:01:38.443Z,99.90
2019-04-07T03:03:08.749Z,99.90
2019-04-07T03:04:27.285Z,99.90
2019-04-07T03:05:58.295Z,99.90
2019-04-07T03:07:13.558Z,99.90
2019-04-07T03:08:37.802Z,99.90
2019-04-07T03:10:04.890Z,99.90
2019-04-07T03:11:21.247Z,99.90
2019-04-07T03:12:37.298Z,99.90
2019-04-07T03:13:54.066Z,99.90
2019-04-07T03:15:15.003Z,99.90
2019-04-07T03:16:38.136Z,99.90
2019-04-07T03:17:53.893Z,99.90
2019-04-07T03:19:04.598Z,99.90
2019-04-07T03:20:29.469Z,99.90
2019-04-07T03:21:56.202Z,99.90
2019-04-07T03:23:22.263Z,99.90
2019-04-07T03:24:42.781Z,99.90
2019-04-07T03:26:09.538Z,99.90
2019-04-07T03:27:42.347Z,99.90
2019-04-07T03:29:05.173Z,99.90
2019-04-07T03:30:49.258Z,99.90
2019-04-07T03:32:02.583Z,99.90
2019-04-07T03:33:45.289Z,99.90
2019-04-07T03:35:07.371Z,99.90
2019-04-07T03:36:30.073Z,99.90
2019-04-07T03:37:47.162Z,99.90
2019-04-07T03:38:59.276Z,99.90
2019-04-07T03:40:35.527Z,99.90
2019-04-07T03:41:45.883Z,99.90
2019-04-07T03:43:04.991Z,99.90
2019-04-07T03:44:14.761Z,99.90
2019-04-07T03:45:26.485Z,99.90
2019-04-07T03:46:49.496Z,99.90
2019-04-07T03:48:02.058Z,99.90
2019-04-07T03:49:23.562Z,99.90
2019-04-07T03:50:45.242Z,99.90
2019-04-07T03:52:09.917Z,99.90
2019-04-07T03:53:39.536Z,99.90
2019-04-07T03:54:55.076Z,99.90
2019-04-07T03:56:27.182Z,99.90
2019-04-07T03:57:47.713Z,99.90
2019-04-07T03:59:21.456Z,99.90
2019-04-07T04:01:35.382Z,99.90
2019-04-07T04:02:50.594Z,99.90
2019-04-07T04:04:10.656Z,99.90
2019-04-07T04:05:33.920Z,99.90
2019-04-07T04:07:21.711Z,99.90
2019-04-07T04:08:34.999Z,99.90
2019-04-07T04:09:44.103Z,99.90
2019-04-07T04:10:55.594Z,99.90
2019-04-07T04:12:25.721Z,99.90
2019-04-07T04:13:56.200Z,99.90
2019-04-07T04:15:04.074Z,99.90
2019-04-07T04:16:15.573Z,99.90
2019-04-07T04:17:20.029Z,99.90
2019-04-07T04:18:28.510Z,99.90
2019-04-07T04:19:33.665Z,99.90
2019-04-07T04:20:38.787Z,99.90
2019-04-07T04:21:45.595Z,99.90
2019-04-07T04:22:50.655Z,99.90
2019-04-07T04:23:55.181Z,99.90
2019-04-07T04:24:59.608Z,99.90
2019-04-07T04:26:04.442Z,99.90
2019-04-07T04:27:08.993Z,99.90
2019-04-07T04:28:14.315Z,99.90
2019-04-07T04:29:18.896Z,99.90
2019-04-07T04:30:23.583Z,99.90
2019-04-07T04:31:28.075Z,99.90
2019-04-07T04:32:32.896Z,99.90
2019-04-07T04:33:37.806Z,99.90
2019-04-07T04:34:45.000Z,99.90
2019-04-07T04:35:49.519Z,99.90
2019-04-07T04:36:54.498Z,99.90
2019-04-07T04:37:59.780Z,99.90
2019-04-07T04:39:08.127Z,99.90
2019-04-07T04:40:13.842Z,99.90
2019-04-07T04:41:18.978Z,99.90
2019-04-07T04:42:23.509Z,99.90
2019-04-07T04:43:27.914Z,99.90
2019-04-07T04:44:32.362Z,99.90
2019-04-07T04:45:36.833Z,99.90
2019-04-07T04:46:41.438Z,99.90
2019-04-07T04:47:46.437Z,99.90
2019-04-07T04:48:51.373Z,99.90
2019-04-07T04:49:56.264Z,99.90
2019-04-07T04:51:00.681Z,99.90
2019-04-07T04:52:05.342Z,99.90
2019-04-07T04:53:10.707Z,99.90
2019-04-07T04:54:15.369Z,99.90
2019-04-07T04:55:20.045Z,99.90
2019-04-07T04:56:24.565Z,99.90
2019-04-07T04:57:28.973Z,99.90
2019-04-07T04:58:33.388Z,99.90
2019-04-07T04:59:37.853Z,99.90
2019-04-07T05:00:42.860Z,99.90
2019-04-07T05:01:47.833Z,99.90
2019-04-07T05:02:52.525Z,99.90
2019-04-07T05:03:57.121Z,99.90
2019-04-07T05:05:02.587Z,99.90
2019-04-07T05:06:07.864Z,99.90
2019-04-07T05:07:12.767Z,99.90
2019-04-07T05:08:17.644Z,99.90
2019-04-07T05:09:22.122Z,99.90
2019-04-07T05:10:26.623Z,99.90
2019-04-07T05:11:31.574Z,99.90
2019-04-07T05:12:36.003Z,99.90
2019-04-07T05:13:41.140Z,99.90
2019-04-07T05:14:45.640Z,99.90
2019-04-07T05:15:50.237Z,99.90
2019-04-07T05:16:54.857Z,99.90
2019-04-07T05:17:59.210Z,99.90
2019-04-07T05:19:04.454Z,99.90
2019-04-07T05:20:09.210Z,99.90
2019-04-07T05:21:13.644Z,99.90
2019-04-07T05:22:17.993Z,99.90
2019-04-07T05:23:23.075Z,99.90
2019-04-07T05:24:27.565Z,99.90
2019-04-07T05:25:31.894Z,99.90
2019-04-07T05:26:36.548Z,99.90
2019-04-07T05:27:41.610Z,99.90
2019-04-07T05:28:46.159Z,99.90
2019-04-07T05:29:51.071Z,99.90
2019-04-07T05:30:55.510Z,99.90
2019-04-07T05:32:00.175Z,99.90
2019-04-07T05:33:05.535Z,99.90
2019-04-07T05:34:10.667Z,99.90
2019-04-07T05:35:15.400Z,99.90
2019-04-07T05:36:20.311Z,99.90
2019-04-07T05:37:25.329Z,99.90
2019-04-07T05:38:30.253Z,99.90
2019-04-07T05:39:34.804Z,99.90
2019-04-07T05:40:39.944Z,99.90
2019-04-07T05:41:45.029Z,99.90
2019-04-07T05:42:49.712Z,99.90
2019-04-07T05:43:54.232Z,99.90
2019-04-07T05:44:58.652Z,99.90
2019-04-07T05:46:05.875Z,99.90
2019-04-07T05:47:10.873Z,99.90
2019-04-07T05:48:18.518Z,99.90
2019-04-07T05:49:23.251Z,99.90
2019-04-07T05:50:28.758Z,99.90
2019-04-07T05:51:33.821Z,99.90
2019-04-07T05:52:39.860Z,99.90
2019-04-07T05:53:47.070Z,99.90
2019-04-07T05:54:51.531Z,99.90
2019-04-07T05:55:56.270Z,99.90
2019-04-07T05:57:01.569Z,99.90
2019-04-07T05:58:08.338Z,99.90
2019-04-07T05:59:13.913Z,99.90
2019-04-07T06:00:19.672Z,99.90
2019-04-07T06:01:24.614Z,99.90
2019-04-07T06:02:31.394Z,99.90
2019-04-07T06:03:38.727Z,99.90
2019-04-07T06:04:41.580Z,99.90
2019-04-07T06:05:50.017Z,99.90
2019-04-07T06:07:06.981Z,99.90
2019-04-07T06:08:18.715Z,99.90
2019-04-07T06:09:08.429Z,99.90
2019-04-07T06:10:13.332Z,99.90
2019-04-07T06:11:17.856Z,99.90
2019-04-07T06:12:22.672Z,99.90
2019-04-07T06:13:27.150Z,99.90
2019-04-07T06:14:31.588Z,99.90
2019-04-07T06:15:36.325Z,99.90
2019-04-07T06:16:40.703Z,99.90
2019-04-07T06:17:45.744Z,99.90
2019-04-07T06:18:50.318Z,99.90
2019-04-07T06:19:54.689Z,99.90
2019-04-07T06:20:59.462Z,99.90
2019-04-07T06:22:04.832Z,99.80
2019-04-07T06:23:10.021Z,99.60
2019-04-07T06:24:14.625Z,99.50
2019-04-07T06:25:19.096Z,99.30
2019-04-07T06:26:23.431Z,99.10
2019-04-07T06:27:29.638Z,99.10
2019-04-07T06:28:34.322Z,98.90
2019-04-07T06:29:38.966Z,98.70
2019-04-07T06:30:44.004Z,98.50
2019-04-07T06:31:49.400Z,98.30
2019-04-07T06:32:54.706Z,98.10
2019-04-07T06:33:59.876Z,97.90
2019-04-07T06:35:05.142Z,97.70
2019-04-07T06:36:09.565Z,97.60
2019-04-07T06:37:14.527Z,97.60
2019-04-07T06:38:29.598Z,97.50
2019-04-07T06:39:24.994Z,97.30
2019-04-07T06:40:29.410Z,97.20
2019-04-07T06:41:34.284Z,96.90
2019-04-07T06:42:38.799Z,96.80
2019-04-07T06:43:44.103Z,96.70
2019-04-07T06:44:51.074Z,96.00
2019-04-07T06:46:04.896Z,96.00
2019-04-07T06:47:15.959Z,96.30
2019-04-07T06:48:21.133Z,95.80
2019-04-07T06:49:47.071Z,95.70
2019-04-07T06:50:59.262Z,95.30
2019-04-07T06:52:25.998Z,95.00
2019-04-07T06:53:58.987Z,95.00
2019-04-07T06:55:33.301Z,94.80
2019-04-07T06:56:50.011Z,94.50
2019-04-07T06:58:12.680Z,94.30
2019-04-07T06:59:26.173Z,94.10
2019-04-07T07:00:49.153Z,93.80
2019-04-07T07:02:13.251Z,93.70
2019-04-07T07:03:36.061Z,93.50
2019-04-07T07:05:06.131Z,93.30
2019-04-07T07:06:26.842Z,93.20
2019-04-07T07:07:52.064Z,93.20
2019-04-07T07:09:07.492Z,93.10
2019-04-07T07:10:38.680Z,93.00
2019-04-07T07:11:58.799Z,92.90
2019-04-07T07:13:30.754Z,92.50
2019-04-07T07:15:03.383Z,92.20
2019-04-07T07:16:26.744Z,91.80
2019-04-07T07:17:39.158Z,91.50
2019-04-07T07:18:56.748Z,91.40
2019-04-07T07:20:08.223Z,91.40
2019-04-07T07:21:39.220Z,91.20
2019-04-07T07:22:46.571Z,91.20
2019-04-07T07:23:50.527Z,91.20
2019-04-07T07:24:58.027Z,91.10
2019-04-07T07:26:03.101Z,91.10
2019-04-07T07:27:10.101Z,90.80
2019-04-07T07:28:13.564Z,90.70
2019-04-07T07:29:19.012Z,90.80
2019-04-07T07:30:23.645Z,90.60
2019-04-07T07:31:28.312Z,90.50
2019-04-07T07:32:35.038Z,90.70
2019-04-07T07:33:41.452Z,90.00
2019-04-07T07:34:44.983Z,89.80
2019-04-07T07:35:49.493Z,90.10
2019-04-07T07:36:56.597Z,89.20
2019-04-07T07:38:00.265Z,88.90
2019-04-07T07:39:10.240Z,88.60
2019-04-07T07:40:16.595Z,87.80
2019-04-07T07:41:21.227Z,87.40
2019-04-07T07:42:25.700Z,87.50
2019-04-07T07:43:30.287Z,86.80
2019-04-07T07:44:38.165Z,87.50
2019-04-07T07:45:44.819Z,86.30
2019-04-07T07:46:49.114Z,86.00
2019-04-07T07:47:54.280Z,86.00
2019-04-07T07:49:01.757Z,85.60
2019-04-07T07:50:07.622Z,85.10
2019-04-07T07:51:13.841Z,84.50
2019-04-07T07:52:20.648Z,84.00
2019-04-07T07:53:27.210Z,83.30
2019-04-07T07:54:31.552Z,83.30
2019-04-07T07:55:37.642Z,82.90
2019-04-07T07:56:47.408Z,82.40
2019-04-07T07:57:49.107Z,82.00
2019-04-07T07:58:53.946Z,81.80
2019-04-07T07:59:58.603Z,81.60
2019-04-07T08:01:03.332Z,81.70
2019-04-07T08:02:08.608Z,81.40
2019-04-07T08:03:14.607Z,80.90
2019-04-07T08:04:19.170Z,80.30
2019-04-07T08:05:23.801Z,80.20
2019-04-07T08:06:28.415Z,80.60
2019-04-07T08:07:33.607Z,79.50
2019-04-07T08:08:38.204Z,79.10
2019-04-07T08:09:42.586Z,78.80
2019-04-07T08:10:47.386Z,77.60
2019-04-07T08:11:52.652Z,76.80
2019-04-07T08:12:57.476Z,76.60
2019-04-07T08:14:02.294Z,75.90
2019-04-07T08:15:07.224Z,75.60
2019-04-07T08:16:11.634Z,75.80
2019-04-07T08:17:16.214Z,75.20
2019-04-07T08:18:21.052Z,74.70
2019-04-07T08:19:29.358Z,74.30
2019-04-07T08:20:32.606Z,73.70
2019-04-07T08:21:37.160Z,73.60
2019-04-07T08:22:43.646Z,74.00
2019-04-07T08:23:48.193Z,73.70
2019-04-07T08:24:53.420Z,74.30
2019-04-07T08:25:59.061Z,72.50
2019-04-07T08:27:05.207Z,71.90
2019-04-07T08:28:09.688Z,71.00
2019-04-07T08:29:14.925Z,70.50
2019-04-07T08:30:20.107Z,71.00
2019-04-07T08:31:25.067Z,70.70
2019-04-07T08:32:31.944Z,69.30
2019-04-07T08:33:35.866Z,68.60
2019-04-07T08:34:40.413Z,68.10
2019-04-07T08:35:45.092Z,68.00
2019-04-07T08:36:49.529Z,68.10
2019-04-07T08:37:54.520Z,66.50
2019-04-07T08:38:59.560Z,66.20
2019-04-07T08:40:07.271Z,66.00
2019-04-07T08:41:12.765Z,66.20
2019-04-07T08:42:18.706Z,66.60
2019-04-07T08:43:23.834Z,66.10
2019-04-07T08:44:30.504Z,66.20
2019-04-07T08:45:36.016Z,65.60
2019-04-07T08:46:42.929Z,65.50
2019-04-07T08:47:48.873Z,65.50
2019-04-07T08:48:55.299Z,64.80
2019-04-07T08:49:59.842Z,64.30
2019-04-07T08:51:04.712Z,65.00
2019-04-07T08:52:11.491Z,63.60
2019-04-07T08:53:16.258Z,63.00
2019-04-07T08:54:21.504Z,62.90
2019-04-07T08:55:25.926Z,63.10
2019-04-07T08:56:31.001Z,62.90
2019-04-07T08:57:36.898Z,62.40
2019-04-07T08:58:41.496Z,61.80
2019-04-07T08:59:46.742Z,61.70
2019-04-07T09:00:53.830Z,61.90
2019-04-07T09:01:58.100Z,61.40
2019-04-07T09:03:07.767Z,61.00
2019-04-07T09:04:09.362Z,61.30
2019-04-07T09:05:14.105Z,61.20
2019-04-07T09:06:18.567Z,60.80
2019-04-07T09:07:24.406Z,60.60
2019-04-07T09:08:29.566Z,60.10
2019-04-07T09:09:37.142Z,59.80
2019-04-07T09:10:51.528Z,60.50
2019-04-07T09:11:57.288Z,60.30
2019-04-07T09:13:03.638Z,59.70
2019-04-07T09:14:08.768Z,58.50
2019-04-07T09:15:19.136Z,58.30
2019-04-07T09:16:31.860Z,58.80
2019-04-07T09:17:46.013Z,59.00
2019-04-07T09:19:12.428Z,58.50
2019-04-07T09:20:44.381Z,59.30
2019-04-07T09:21:54.854Z,61.40
2019-04-07T09:23:06.832Z,61.20
2019-04-07T09:24:37.078Z,61.30
2019-04-07T09:26:00.127Z,59.10
2019-04-07T09:27:18.234Z,57.60
2019-04-07T09:28:34.946Z,58.00
2019-04-07T09:29:48.813Z,57.70
2019-04-07T09:31:15.416Z,57.70
2019-04-07T09:32:34.815Z,58.10
2019-04-07T09:34:08.056Z,56.60
2019-04-07T09:35:30.947Z,55.40
2019-04-07T09:37:04.468Z,54.50
2019-04-07T09:38:30.417Z,55.20
2019-04-07T09:39:57.826Z,53.40
2019-04-07T09:41:02.824Z,53.90
2019-04-07T09:42:15.968Z,52.90
2019-04-07T09:43:34.852Z,53.00
2019-04-07T09:45:07.071Z,52.40
2019-04-07T09:46:15.162Z,52.20
2019-04-07T09:47:39.151Z,52.90
2019-04-07T09:49:03.349Z,51.50
2019-04-07T09:50:33.361Z,50.60
2019-04-07T09:51:44.012Z,51.00
2019-04-07T09:53:17.042Z,49.40
2019-04-07T09:54:34.838Z,49.30
2019-04-07T09:55:58.248Z,48.90
2019-04-07T09:57:23.559Z,47.70
2019-04-07T09:59:01.372Z,48.10
2019-04-07T10:01:06.879Z,47.20
2019-04-07T10:02:32.018Z,46.50
2019-04-07T10:04:07.122Z,46.30
2019-04-07T10:05:30.935Z,46.00
2019-04-07T10:06:59.369Z,45.60
2019-04-07T10:08:19.076Z,43.30
2019-04-07T10:09:42.022Z,43.00
2019-04-07T10:11:05.238Z,43.50
2019-04-07T10:12:18.503Z,43.30
2019-04-07T10:13:46.338Z,43.50
2019-04-07T10:15:15.445Z,43.00
2019-04-07T10:16:37.931Z,41.70
2019-04-07T10:18:06.312Z,40.60
2019-04-07T10:19:30.077Z,40.10
2019-04-07T10:21:05.809Z,40.40
2019-04-07T10:22:29.947Z,39.90
2019-04-07T10:23:45.636Z,39.20
2019-04-07T10:24:57.237Z,38.90
2019-04-07T10:26:26.943Z,39.10
2019-04-07T10:27:46.499Z,38.80
2019-04-07T10:28:56.646Z,38.90
2019-04-07T10:30:20.141Z,39.00
2019-04-07T10:31:30.528Z,39.30
2019-04-07T10:32:43.088Z,39.00
2019-04-07T10:34:06.127Z,39.70
2019-04-07T10:35:30.635Z,38.60
2019-04-07T10:36:43.858Z,38.00
2019-04-07T10:38:02.621Z,38.00
2019-04-07T10:39:16.370Z,38.50
2019-04-07T10:40:38.978Z,38.70
2019-04-07T10:42:01.550Z,39.00
2019-04-07T10:43:25.007Z,38.50
2019-04-07T10:44:37.743Z,38.10
2019-04-07T10:45:57.972Z,37.90
2019-04-07T10:47:30.983Z,37.70
2019-04-07T10:48:43.365Z,36.40
2019-04-07T10:50:20.007Z,35.90
2019-04-07T10:51:34.307Z,36.10
2019-04-07T10:53:17.003Z,36.20
2019-04-07T10:54:34.903Z,36.30
2019-04-07T10:55:45.257Z,36.50
2019-04-07T10:56:55.252Z,35.30
2019-04-07T10:58:21.964Z,34.60
2019-04-07T10:59:54.440Z,34.70
2019-04-07T11:01:17.886Z,33.70
2019-04-07T11:02:29.612Z,33.10
2019-04-07T11:03:53.949Z,33.20
2019-04-07T11:05:33.725Z,32.60
2019-04-07T11:07:00.069Z,32.50
2019-04-07T11:08:33.081Z,32.60
2019-04-07T11:10:03.761Z,32.70
2019-04-07T11:11:36.699Z,33.00
2019-04-07T11:12:58.182Z,33.20
2019-04-07T11:14:19.896Z,33.60
2019-04-07T11:15:35.203Z,32.80
2019-04-07T11:16:51.303Z,32.60
2019-04-07T11:18:33.737Z,31.80
2019-04-07T11:20:00.323Z,32.50
2019-04-07T11:21:16.697Z,31.30
2019-04-07T11:22:38.526Z,30.80
2019-04-07T11:24:03.890Z,30.10
2019-04-07T11:25:24.481Z,29.80
2019-04-07T11:26:47.526Z,29.00
2019-04-07T11:28:10.015Z,28.50
2019-04-07T11:29:33.688Z,28.00
2019-04-07T11:31:16.862Z,27.60
2019-04-07T11:32:28.875Z,27.20
2019-04-07T11:33:58.865Z,26.10
2019-04-07T11:35:17.436Z,25.50
2019-04-07T11:36:44.280Z,25.40
2019-04-07T11:38:08.206Z,24.50
2019-04-07T11:39:39.576Z,24.50
2019-04-07T11:41:02.564Z,24.10
2019-04-07T11:42:25.125Z,23.20
2019-04-07T11:43:35.931Z,22.40
2019-04-07T11:44:57.537Z,22.10
2019-04-07T11:46:24.387Z,21.80
2019-04-07T11:47:54.449Z,21.60
2019-04-07T11:49:18.299Z,21.10
2019-04-07T11:50:27.975Z,20.40
2019-04-07T11:51:46.732Z,20.10
2019-04-07T11:53:02.000Z,19.90
2019-04-07T11:54:16.449Z,19.60
2019-04-07T11:55:30.101Z,19.10
2019-04-07T11:56:56.538Z,18.80
2019-04-07T11:58:39.793Z,18.40
2019-04-07T12:00:01.210Z,18.10
2019-04-07T12:01:46.036Z,18.00
2019-04-07T12:03:11.657Z,17.40
2019-04-07T12:04:28.389Z,16.90
2019-04-07T12:06:01.354Z,17.20
2019-04-07T12:07:23.390Z,16.80
2019-04-07T12:08:51.565Z,17.20
2019-04-07T12:10:18.636Z,17.10
2019-04-07T12:11:57.216Z,17.30
2019-04-07T12:13:25.382Z,17.60
2019-04-07T12:14:54.741Z,16.80
2019-04-07T12:16:21.921Z,16.60
2019-04-07T12:17:46.387Z,16.60
2019-04-07T12:19:13.791Z,15.90
2019-04-07T12:20:42.169Z,15.50
2019-04-07T12:21:59.660Z,15.10
2019-04-07T12:23:10.932Z,14.70
2019-04-07T12:24:33.677Z,14.40
2019-04-07T12:25:48.228Z,14.20
2019-04-07T12:27:15.144Z,13.80
2019-04-07T12:28:38.690Z,13.30
2019-04-07T12:30:02.486Z,13.40
2019-04-07T12:31:20.769Z,13.30
2019-04-07T12:32:47.790Z,12.70
2019-04-07T12:34:15.393Z,13.40
2019-04-07T12:35:54.994Z,13.00
2019-04-07T12:37:07.923Z,12.50
2019-04-07T12:38:26.438Z,12.50
2019-04-07T12:39:51.017Z,12.50
2019-04-07T12:41:17.154Z,12.60
2019-04-07T12:42:23.274Z,12.50
2019-04-07T12:43:49.190Z,12.50
2019-04-07T12:45:11.244Z,12.40
2019-04-07T12:46:21.695Z,12.50
2019-04-07T12:48:00.275Z,12.70
2019-04-07T12:49:12.316Z,12.50
2019-04-07T12:50:30.600Z,12.60
2019-04-07T12:51:55.951Z,12.40
2019-04-07T12:53:32.160Z,12.50
2019-04-07T12:54:50.481Z,12.70
2019-04-07T12:56:31.712Z,12.20
2019-04-07T12:57:55.288Z,11.80
2019-04-07T12:59:07.988Z,11.80
2019-04-07T13:00:55.792Z,11.70
2019-04-07T13:02:07.864Z,11.90
2019-04-07T13:03:25.362Z,11.60
2019-04-07T13:04:35.408Z,11.80
2019-04-07T13:05:47.183Z,11.60
2019-04-07T13:07:15.266Z,11.20
2019-04-07T13:08:25.814Z,11.60
2019-04-07T13:09:38.048Z,11.50
2019-04-07T13:10:49.331Z,11.90
2019-04-07T13:12:09.085Z,11.80
2019-04-07T13:13:33.899Z,11.80
2019-04-07T13:14:47.646Z,12.30
2019-04-07T13:16:10.177Z,11.80
2019-04-07T13:17:36.750Z,11.70
2019-04-07T13:18:56.662Z,11.90
2019-04-07T13:20:13.329Z,11.60
2019-04-07T13:21:29.021Z,11.80
2019-04-07T13:22:50.806Z,11.40
2019-04-07T13:24:15.454Z,11.40
2019-04-07T13:25:25.432Z,11.60
2019-04-07T13:26:37.495Z,11.50
2019-04-07T13:27:55.428Z,11.50
2019-04-07T13:29:04.309Z,11.60
2019-04-07T13:30:24.511Z,11.80
2019-04-07T13:31:51.449Z,11.80
2019-04-07T13:33:20.482Z,12.00
2019-04-07T13:34:51.469Z,11.60
2019-04-07T13:36:13.911Z,11.70
2019-04-07T13:37:33.116Z,11.60
2019-04-07T13:38:43.158Z,11.80
2019-04-07T13:40:02.681Z,11.50
2019-04-07T13:41:36.699Z,11.50
2019-04-07T13:42:57.450Z,11.30
2019-04-07T13:44:07.616Z,11.20
2019-04-07T13:45:42.139Z,10.90
2019-04-07T13:47:06.335Z,11.00
2019-04-07T13:48:28.847Z,11.10
2019-04-07T13:49:51.418Z,11.10
2019-04-07T13:51:18.221Z,11.30
2019-04-07T13:52:34.408Z,11.40
2019-04-07T13:53:59.579Z,11.30
2019-04-07T13:55:10.761Z,11.30
2019-04-07T13:56:21.926Z,11.70
2019-04-07T13:57:49.324Z,11.90
2019-04-07T13:59:12.747Z,12.00
2019-04-07T14:00:28.306Z,11.70
2019-04-07T14:01:48.103Z,11.80
2019-04-07T14:03:01.412Z,11.30
2019-04-07T14:04:37.095Z,11.10
2019-04-07T14:06:02.361Z,11.20
2019-04-07T14:07:18.205Z,11.20
2019-04-07T14:08:32.146Z,10.90
2019-04-07T14:09:47.807Z,11.10
2019-04-07T14:11:10.131Z,10.80
2019-04-07T14:12:33.403Z,10.80
2019-04-07T14:14:09.658Z,11.30
2019-04-07T14:15:23.371Z,10.90
2019-04-07T14:16:46.421Z,11.00
2019-04-07T14:18:10.139Z,11.50
2019-04-07T14:19:21.858Z,11.30
2019-04-07T14:20:40.377Z,11.10
2019-04-07T14:21:58.870Z,11.10
2019-04-07T14:23:13.265Z,10.90
2019-04-07T14:24:23.892Z,10.90
2019-04-07T14:26:03.541Z,10.80
2019-04-07T14:27:17.612Z,11.40
2019-04-07T14:28:31.213Z,11.20
2019-04-07T14:29:42.738Z,11.90
2019-04-07T14:30:59.818Z,11.00
2019-04-07T14:32:23.059Z,11.00
2019-04-07T14:33:41.461Z,10.80
2019-04-07T14:34:55.450Z,10.60
2019-04-07T14:36:12.897Z,10.50
2019-04-07T14:37:24.006Z,10.40
2019-04-07T14:39:05.824Z,10.40
2019-04-07T14:40:18.351Z,10.30
2019-04-07T14:41:42.347Z,10.30
2019-04-07T14:43:09.348Z,10.60
2019-04-07T14:44:29.315Z,10.70
2019-04-07T14:45:47.540Z,10.60
2019-04-07T14:47:12.859Z,10.80
2019-04-07T14:48:33.738Z,10.90
2019-04-07T14:50:02.489Z,10.80
2019-04-07T14:51:21.865Z,10.80
2019-04-07T14:52:41.115Z,10.90
2019-04-07T14:54:04.736Z,11.00
2019-04-07T14:55:23.760Z,11.10
2019-04-07T14:56:42.145Z,11.00
2019-04-07T14:58:01.380Z,10.90
2019-04-07T14:59:13.769Z,10.90
2019-04-07T15:00:41.725Z,10.90
2019-04-07T15:01:53.690Z,10.80
2019-04-07T15:02:58.122Z,10.90
2019-04-07T15:04:02.572Z,11.00
2019-04-07T15:05:18.545Z,11.40
2019-04-07T15:06:25.915Z,10.90
2019-04-07T15:07:59.712Z,11.00
2019-04-07T15:09:16.641Z,10.80
2019-04-07T15:10:27.591Z,10.80
2019-04-07T15:11:45.634Z,10.90
2019-04-07T15:12:53.928Z,11.10
2019-04-07T15:14:00.696Z,11.20
2019-04-07T15:15:08.611Z,11.10
2019-04-07T15:16:11.339Z,11.10
2019-04-07T15:17:16.580Z,11.10
2019-04-07T15:18:21.579Z,10.90
2019-04-07T15:19:26.089Z,10.90
2019-04-07T15:20:31.162Z,11.10
2019-04-07T15:21:36.305Z,11.20
2019-04-07T15:22:41.069Z,11.00
2019-04-07T15:23:47.384Z,11.00
2019-04-07T15:24:52.553Z,10.80
2019-04-07T15:25:56.928Z,10.90
2019-04-07T15:27:01.537Z,10.90
2019-04-07T15:28:06.800Z,11.20
2019-04-07T15:29:11.381Z,11.20
2019-04-07T15:30:17.029Z,11.30
2019-04-07T15:31:21.704Z,11.20
2019-04-07T15:32:28.625Z,11.20
2019-04-07T15:33:33.970Z,11.30
2019-04-07T15:34:40.992Z,11.30
2019-04-07T15:35:48.686Z,11.30
2019-04-07T15:36:51.071Z,11.30
2019-04-07T15:37:55.693Z,11.10
2019-04-07T15:39:01.150Z,11.00
2019-04-07T15:40:07.246Z,11.40
2019-04-07T15:41:15.596Z,11.10
2019-04-07T15:42:33.058Z,11.10
2019-04-07T15:43:25.404Z,11.10
2019-04-07T15:44:29.898Z,11.10
2019-04-07T15:45:34.293Z,11.30
2019-04-07T15:46:38.686Z,11.60
2019-04-07T15:47:43.039Z,11.00
2019-04-07T15:48:48.375Z,11.30
2019-04-07T15:49:52.895Z,11.30
2019-04-07T15:51:00.803Z,11.40
2019-04-07T15:52:07.769Z,11.40
2019-04-07T15:53:09.322Z,11.40
2019-04-07T15:54:14.590Z,11.20